Amherst, OH

11:47 PM EST on January 25, 2015 (GMT -0500)
Burke Lakefront | Change Station
CLOSE
Current Station
Airport
Location: Cleveland Burke,
Elevation: 584 ft
Nearby Weather Stations

Elev 584 ft 41.52 °N, 81.68 °W | Updated 54 minutes ago

Snow
Snow
21 °F
Feels Like 9 °F
N
12
Wind Variable Wind from NE

Today
High -- | Low -- °F
--% Chance of Precip.
Yesterday
High -- | Low -- °F
Precip. -- in
7:46 AM 5:36 PM
Waxing Crescent, 39% visible
Pressure 29.93 in
Visibility 9.0 miles
Clouds Overcast 4400 ft
Windchill 9 °F
Dew Point 13 °F
Humidity 71%
Rainfall 0.06 in
Snow Depth Not available.
UV 0 out of 12
Pollen .10 out of 12
Air Quality Not available.
Flu Activity Not available.
METAR KBKL 260353Z 05010KT 9SM -SN OVC044 M06/M11 A2990 RMK AO2 SLP134 P0000 T10611106

More Conditions Fewer Conditions

Pressure 29.93 in
Visibility 9.0 miles
Clouds Overcast 4400 ft
Windchill 9 °F
Dew Point 13 °F
Humidity 71%
Rainfall 0.06 in
Snow Depth Not available.
UV 0 out of 12
Pollen .10 out of 12
Air Quality Not available.
Flu Activity Not available.
METAR KBKL 260353Z 05010KT 9SM -SN OVC044 M06/M11 A2990 RMK AO2 SLP134 P0000 T10611106

More Conditions Fewer Conditions

10-Day Weather Forecast

Almanac

Astronomy

Jan. 25, 2015 Rise Set
Actual Time
Civil Twilight
Nautical Twilight
Astronomical Twilight
Moon
Length of Visible Light
Length of Day
Tomorrow will be .
, % of the Moon is Illuminated

Today's Extremes

State Highs State Lows

Community

WunderPhotos

Upload Photos

1,790,139 photos uploaded!

WunderBlogs® & News

Nearby

Air Quality

  Air Quality AQ Index Pollutant
Not available.

Snow Depth

Station Depth Elevation

Earthquake Activity

City Distance Mag. Time & Date
Minimum magnitude displayed is 2.5.

Coastal Water Temperatures

Place Temperature

Nearby Weather Stations